Latest Weather Observations for Cummins Airport

IDS60801

Issued at 8:21 am CDT Tuesday 6 December 2022 (issued every 10 minutes, with the page automatically refreshed every 10 minutes)

About weather observations | Map of weather stations | Latest weather observations for SA | Other Formats
Station Details ID: 018217 Name: CUMMINS AERO Lat: -34.25 Lon: 135.71 Height: 60.11 m
Data from the previous 72 hours. | See also: Recent months at Cummins Airport
Date/Time
CDT
Temp
°C
App
Temp
°C
Dew
Point
°C
Rel
Hum
%
Delta-T
°C
Wind Press
QNH
hPa
Press
MSL
hPa
Rain since
9am
mm
Dir  Spd
km/h
Gust
km/h
Spd
kts
Gust
kts
06/08:00am 16.2 13.1 11.6 74 2.5 ESE 19 26 10 14 1011.2 1011.0 0.0
06/07:30am 15.7 12.9 11.5 76 2.3 E 17 26 9 14 1010.4 1010.3 0.0
06/07:00am 15.0 12.6 11.4 79 1.9 E 15 22 8 12 1010.5 1010.4 0.0
06/06:30am 14.6 11.2 11.2 80 1.8 ESE 20 30 11 16 1009.5 1009.4 0.0
06/06:00am 14.6 11.1 11.0 79 1.9 ESE 20 28 11 15 1010.1 1010.0 0.0
06/05:30am 14.5 11.5 10.7 78 2.0 ESE 17 22 9 12 1011.1 1010.9 0.0
06/05:00am 14.3 11.3 10.7 79 1.9 ESE 17 22 9 12 1010.7 1010.6 0.0
06/04:30am 14.3 10.7 10.7 79 1.9 ESE 20 28 11 15 1010.5 1010.4 0.0
06/04:00am 14.1 10.5 10.5 79 1.9 ESE 20 30 11 16 1010.1 1010.0 0.0
06/03:30am 13.8 10.7 10.2 79 1.9 E 17 24 9 13 1010.8 1010.7 0.0
06/03:00am 13.7 10.2 10.1 79 1.9 E 19 26 10 14 1011.2 1011.0 0.0
06/02:30am 13.8 9.2 9.8 77 2.1 ESE 24 35 13 19 1011.2 1011.0 0.0
06/02:00am 13.7 9.5 9.7 77 2.1 ESE 22 30 12 16 1012.2 1012.0 0.0
06/01:30am 13.9 9.3 9.7 76 2.2 SE 24 33 13 18 1012.1 1011.9 0.0
06/01:00am 14.1 9.9 9.7 75 2.3 ESE 22 28 12 15 1013.0 1012.8 0.0
06/12:30am 14.5 10.6 9.5 72 2.6 ESE 20 28 11 15 1014.3 1014.1 0.0
06/12:00am 14.8 10.9 9.4 70 2.8 ESE 20 28 11 15 1014.7 1014.5 0.0
 
Date/Time
CDT
Temp
°C
App
Temp
°C
Dew
Point
°C
Rel
Hum
%
Delta-T
°C
Wind Press
QNH
hPa
Press
MSL
hPa
Rain since
9am
mm
Dir  Spd
km/h
Gust
km/h
Spd
kts
Gust
kts
05/11:30pm 15.0 10.6 9.1 68 3.0 ESE 22 32 12 17 1014.8 1014.6 0.0
05/11:00pm 15.2 10.8 9.1 67 3.1 ESE 22 37 12 20 1014.3 1014.1 0.0
05/10:30pm 15.0 11.0 9.1 68 3.0 ESE 20 26 11 14 1014.6 1014.4 0.0
05/10:00pm 15.1 11.2 9.5 69 2.9 ESE 20 30 11 16 1015.0 1014.8 0.0
05/09:30pm 15.5 12.7 10.1 70 2.8 ESE 15 20 8 11 1015.1 1014.9 0.0
05/09:00pm 15.9 13.0 9.8 67 3.2 ESE 15 22 8 12 1015.4 1015.2 0.0
05/08:30pm 16.3 13.0 9.5 64 3.5 SE 17 22 9 12 1015.6 1015.4 0.0
05/08:00pm 16.6 13.2 9.1 61 3.9 SE 17 22 9 12 1015.9 1015.7 0.0
05/07:30pm 17.2 13.2 8.9 58 4.3 SE 20 28 11 15 1015.6 1015.4 0.0
05/07:00pm 17.6 11.9 8.5 55 4.7 SE 28 39 15 21 1014.6 1014.4 0.0
05/06:30pm 17.9 11.5 8.5 54 4.9 SE 32 41 17 22 1014.1 1013.9 0.0
05/06:00pm 18.6 12.1 8.3 51 5.3 SE 32 48 17 26 1014.4 1014.2 0.0
05/05:30pm 19.7 13.3 8.7 49 5.8 SE 32 44 17 24 1014.4 1014.2 0.0
05/05:00pm 20.0 13.5 8.0 46 6.2 SE 32 46 17 25 1014.9 1014.7 0.0
05/04:30pm 21.7 15.8 8.9 44 6.8 SE 30 44 16 24 1015.1 1014.9 0.0
05/04:00pm 21.4 15.9 7.6 41 7.2 SE 26 35 14 19 1015.6 1015.4 0.0
05/03:30pm 21.6 16.2 7.8 41 7.2 SE 26 37 14 20 1015.9 1015.7 0.0
05/03:00pm 22.7 17.5 8.8 41 7.4 ESE 26 43 14 23 1015.7 1015.5 0.0
05/02:30pm 22.0 16.4 8.9 43 7.0 ESE 28 41 15 22 1016.0 1015.8 0.0
05/02:00pm 22.2 17.0 9.0 43 7.1 SE 26 39 14 21 1016.6 1016.4 0.0
05/01:30pm 21.7 16.5 8.9 44 6.8 SE 26 39 14 21 1017.1 1016.9 0.0
05/01:00pm 21.9 17.4 8.4 42 7.1 SE 22 32 12 17 1017.8 1017.6 0.0
05/12:30pm 22.0 17.8 8.2 41 7.2 ESE 20 35 11 19 1018.3 1018.1 0.0
05/12:00pm 21.4 17.4 9.0 45 6.6 SE 20 35 11 19 1018.1 1017.9 0.0
05/11:30am 20.1 15.7 8.8 48 5.9 SSE 22 33 12 18 1018.0 1017.8 0.0
05/11:00am 20.1 14.7 8.1 46 6.2 SE 26 39 14 21 1017.9 1017.7 0.0
05/10:30am 19.4 13.4 8.7 50 5.6 SE 30 43 16 23 1017.1 1016.9 0.0
05/10:00am 19.3 13.2 8.3 49 5.7 SE 30 41 16 22 1017.1 1016.9 0.0
05/09:30am 17.6 11.5 9.8 60 4.1 SE 32 41 17 22 1017.2 1017.0 0.0
05/09:00am 17.9 12.3 8.7 55 4.8 SE 28 41 15 22 1017.1 1016.9 0.0
05/08:30am 17.5 11.5 10.1 62 3.9 SE 32 43 17 23 1016.9 1016.7 0.0
05/08:00am 16.8 11.9 10.0 64 3.6 SSE 26 41 14 22 1016.6 1016.4 0.0
05/07:30am 17.0 12.3 10.6 66 3.4 SSE 26 43 14 23 1016.0 1015.8 0.0
05/07:00am 15.5 11.6 10.7 73 2.5 SSE 22 30 12 16 1015.7 1015.5 0.0
05/06:30am 14.8 11.1 10.2 74 2.4 SSE 20 28 11 15 1015.7 1015.5 0.0
05/06:00am 14.8 10.4 10.4 75 2.3 SSE 24 32 13 17 1015.2 1015.0 0.0
05/05:30am 14.9 10.2 10.7 76 2.2 SSE 26 35 14 19 1014.8 1014.6 0.0
05/05:00am 15.3 10.9 10.5 73 2.5 SSE 24 39 13 21 1015.0 1014.8 0.0
05/04:30am 15.2 11.2 10.6 74 2.4 SSE 22 35 12 19 1014.8 1014.6 0.0
05/04:00am 15.5 11.0 11.5 77 2.2 SSE 26 35 14 19 1014.6 1014.4 0.0
05/03:30am 15.5 11.3 11.1 75 2.4 SSE 24 33 13 18 1015.1 1014.9 0.0
05/03:00am 15.6 12.7 11.0 74 2.5 SSE 17 24 9 13 1015.6 1015.4 0.0
05/02:30am 15.7 12.5 11.1 74 2.5 SSE 19 24 10 13 1016.1 1015.9 0.0
05/02:00am 15.7 12.6 11.5 76 2.3 SSE 19 24 10 13 1016.1 1015.9 0.0
05/01:30am 15.6 14.6 12.2 80 1.9 SSE 9 15 5 8 1016.6 1016.4 0.0
05/01:00am 15.4 12.4 12.0 80 1.9 S 19 24 10 13 1016.6 1016.4 0.0
05/12:30am 15.2 12.3 12.3 83 1.6 S 19 24 10 13 1016.7 1016.5 0.0
05/12:00am 15.1 13.5 12.8 86 1.3 SSE 13 17 7 9 1016.0 1015.8 0.0
 
Date/Time
CDT
Temp
°C
App
Temp
°C
Dew
Point
°C
Rel
Hum
%
Delta-T
°C
Wind Press
QNH
hPa
Press
MSL
hPa
Rain since
9am
mm
Dir  Spd
km/h
Gust
km/h
Spd
kts
Gust
kts
04/11:30pm 15.1 12.7 12.6 85 1.4 SSE 17 22 9 12 1016.2 1016.0 0.0
04/11:00pm 16.2 13.2 12.0 76 2.3 S 19 28 10 15 1017.8 1017.6 0.0
04/10:30pm 16.1 13.5 11.9 76 2.3 S 17 28 9 15 1017.4 1017.2 0.0
04/10:00pm 16.0 13.5 12.2 78 2.1 S 17 28 9 15 1017.0 1016.8 0.0
04/09:30pm 16.2 12.6 12.0 76 2.3 S 22 30 12 16 1016.5 1016.3 0.0
04/09:00pm 16.2 11.9 12.0 76 2.3 SSW 26 33 14 18 1016.4 1016.2 0.0
04/08:30pm 16.4 12.1 12.2 76 2.3 SSW 26 39 14 21 1016.2 1016.0 0.0
04/08:00pm 16.6 12.3 12.2 75 2.4 S 26 39 14 21 1015.1 1014.9 0.0
04/07:30pm 17.0 11.6 12.7 76 2.4 SSW 33 43 18 23 1014.8 1014.6 0.0
04/07:00pm 17.7 13.3 12.8 73 2.7 S 28 39 15 21 1014.3 1014.1 0.0
04/06:30pm 18.5 13.0 12.5 68 3.4 SSW 33 44 18 24 1013.3 1013.1 0.0
04/06:00pm 19.6 13.8 12.6 64 3.9 SSW 35 46 19 25 1012.3 1012.1 0.0
04/05:30pm 19.7 14.3 12.7 64 4.0 SSW 33 43 18 23 1012.4 1012.2 0.0
04/05:00pm 22.4 16.4 13.2 56 5.3 SW 37 46 20 25 1012.1 1011.9 0.0
04/04:30pm 23.0 17.8 12.9 53 5.8 SSW 32 43 17 23 1011.8 1011.6 0.0
04/04:00pm 22.8 17.9 13.6 56 5.4 SW 32 41 17 22 1011.9 1011.7 0.0
04/03:30pm 25.6 21.0 12.4 43 7.6 SSW 28 35 15 19 1011.4 1011.2 0.0
04/03:00pm 27.6 23.4 13.5 41 8.4 SW 28 39 15 21 1011.4 1011.2 0.0
04/02:30pm 28.2 22.9 12.5 37 9.2 SW 32 43 17 23 1011.2 1011.0 0.0
04/02:00pm 25.8 20.9 14.3 49 6.9 SSW 33 43 18 23 1011.3 1011.1 0.0
04/01:30pm 29.7 25.6 13.9 38 9.5 SW 28 41 15 22 1010.4 1010.3 0.0
04/01:00pm 32.6 26.5 6.7 20 14.1 WSW 28 41 15 22 1010.4 1010.3 0.0
04/12:30pm 33.4 28.6 8.8 22 13.9 WNW 24 35 13 19 1010.4 1010.3 0.0
04/12:00pm 32.7 28.0 6.1 19 14.4 NW 20 28 11 15 1010.2 1010.1 0.0
04/11:30am 31.9 27.5 4.6 18 14.3 NW 17 22 9 12 1010.5 1010.4 0.0
04/11:00am 31.7 27.4 5.3 19 14.0 WNW 17 28 9 15 1010.8 1010.7 0.0
04/10:30am 30.0 25.6 4.6 20 13.2 WNW 17 22 9 12 1010.8 1010.7 0.0
04/10:00am 29.6 26.0 5.0 21 12.8 WNW 13 20 7 11 1011.2 1011.0 0.0
04/09:30am 27.9 24.3 4.9 23 11.8 WNW 13 19 7 10 1011.3 1011.1 0.0
04/09:00am 25.7 23.6 5.8 28 10.3 NW 6 11 3 6 1011.4 1011.2 0.0
04/08:30am 23.6 22.7 6.0 32 9.0 CALM 0 0 0 0 1011.5 1011.3 0.0
04/08:00am 21.5 19.0 8.1 42 7.0 WSW 11 19 6 10 1011.4 1011.2 0.0
04/07:30am 18.7 16.9 8.1 50 5.5 WSW 7 22 4 12 1010.7 1010.6 0.0
04/07:00am 14.9 14.6 8.6 66 3.2 CALM 0 0 0 0 1009.9 1009.8 0.0
04/06:30am 13.6 11.7 7.4 66 3.0 WSW 7 9 4 5 1009.6 1009.5 0.0
04/06:00am 13.9 11.8 6.7 62 3.5 NW 7 9 4 5 1009.1 1009.0 0.0
04/05:30am 16.6 13.8 5.3 47 5.4 N 9 9 5 5 1008.8 1008.7 0.0
04/05:00am 18.2 14.9 4.7 41 6.5 NE 11 13 6 7 1008.5 1008.4 0.0
04/04:30am 18.7 15.8 4.8 40 6.7 NNE 9 11 5 6 1008.6 1008.5 0.0
04/04:00am 19.1 16.2 4.8 39 6.9 NNE 9 11 5 6 1008.6 1008.5 0.0
04/03:30am 19.1 15.8 4.8 39 6.9 NE 11 15 6 8 1008.7 1008.6 0.0
04/03:00am 18.2 16.3 5.1 42 6.3 NE 4 9 2 5 1008.9 1008.8 0.0
04/02:30am 20.0 17.1 4.5 36 7.5 NE 9 15 5 8 1009.1 1009.0 0.0
04/02:00am 21.1 17.8 4.6 34 8.1 ENE 11 17 6 9 1009.4 1009.3 0.0
04/01:30am 21.3 18.8 4.8 34 8.1 ENE 7 11 4 6 1009.9 1009.8 0.0
04/01:00am 20.9 17.7 5.3 36 7.7 ENE 11 13 6 7 1010.2 1010.1 0.0
04/12:30am 21.7 18.3 3.9 31 8.6 E 11 15 6 8 1010.6 1010.5 0.0
04/12:00am 21.7 17.4 3.4 30 8.8 ENE 15 17 8 9 1010.6 1010.5 0.0
 
Date/Time
CDT
Temp
°C
App
Temp
°C
Dew
Point
°C
Rel
Hum
%
Delta-T
°C
Wind Press
QNH
hPa
Press
MSL
hPa
Rain since
9am
mm
Dir  Spd
km/h
Gust
km/h
Spd
kts
Gust
kts
03/11:30pm 20.2 17.8 5.1 37 7.4 NE 7 9 4 5 1010.8 1010.7 0.0
03/11:00pm 22.0 18.2 4.1 31 8.7 ENE 13 20 7 11 1010.7 1010.6 0.0
03/10:30pm 20.3 17.5 5.1 37 7.5 NE 9 13 5 7 1011.1 1010.9 0.0
03/10:00pm 21.3 18.5 5.2 35 8.0 NNE 9 13 5 7 1011.1 1010.9 0.0
03/09:30pm 22.5 20.3 6.3 35 8.3 NE 7 11 4 6 1010.7 1010.6 0.0
03/09:00pm 23.8 21.6 6.1 32 9.1 ENE 7 11 4 6 1010.7 1010.6 0.0
03/08:30pm 25.7 23.5 6.3 29 10.1 E 7 11 4 6 1010.7 1010.6 0.0
03/08:00pm 28.3 25.4 8.1 28 11.0 ESE 13 20 7 11 1010.7 1010.6 0.0
03/07:30pm 30.2 25.9 6.8 23 12.6 ESE 19 24 10 13 1010.3 1010.2 0.0
03/07:00pm 31.6 26.3 5.2 19 13.9 ESE 22 30 12 16 1010.0 1009.9 0.0
03/06:30pm 32.8 27.2 3.7 16 15.1 SE 22 30 12 16 1009.7 1009.6 0.0
03/06:00pm 33.8 28.2 5.4 17 15.2 SE 24 33 13 18 1009.5 1009.4 0.0
03/05:30pm 34.9 29.7 5.4 16 15.9 SE 22 32 12 17 1009.4 1009.3 0.0
03/05:00pm 35.5 30.6 4.9 15 16.4 SE 20 37 11 20 1009.4 1009.3 0.0
03/04:49pm 35.6 30.5 4.0 14 16.7 WSW 20 50 11 27 1008.8 1008.7 0.0
03/04:30pm 35.5 30.7 5.8 16 16.2 SE 20 35 11 19 1009.4 1009.3 0.0
03/04:00pm 36.3 30.3 3.5 13 17.3 SW 24 33 13 18 1009.5 1009.4 0.0
03/03:30pm 37.3 31.9 8.2 17 16.6 NW 26 56 14 30 1009.2 1009.1 0.0
03/03:29pm 37.1 31.9 7.1 16 16.8 NNW 24 56 13 30 1008.2 1008.1 0.0
03/03:00pm 36.6 31.8 0.1 10 18.3 S 15 24 8 13 1009.6 1009.5 0.0
03/02:30pm 36.4 33.5 2.5 12 17.6 W 7 19 4 10 1009.9 1009.8 0.0
03/02:00pm 35.8 31.8 3.1 13 17.1 SSW 13 19 7 10 1010.2 1010.1 0.0
03/01:30pm 35.4 31.4 0.5 11 17.5 SW 11 19 6 10 1010.4 1010.3 0.0
03/01:00pm 34.8 30.1 1.2 12 16.9 W 15 26 8 14 1010.8 1010.7 0.0
03/12:30pm 34.4 31.0 2.0 13 16.5 WNW 9 20 5 11 1011.3 1011.1 0.0
03/12:00pm 34.1 30.3 3.8 15 15.9 WNW 13 24 7 13 1011.6 1011.4 0.0
03/11:30am 34.8 30.5 3.4 14 16.4 N 15 28 8 15 1011.7 1011.5 0.0
03/11:00am 33.9 28.7 2.7 14 16.0 N 19 28 10 15 1011.8 1011.6 0.0
03/10:30am 32.6 27.2 4.4 17 14.8 N 22 30 12 16 1011.9 1011.7 0.0
03/10:00am 31.4 26.4 6.5 21 13.4 N 22 30 12 16 1012.1 1011.9 0.0
03/09:30am 30.2 25.7 6.8 23 12.6 N 20 33 11 18 1012.2 1012.0 0.0
03/09:00am 28.5 23.2 6.6 25 11.6 NNE 24 35 13 19 1012.1 1011.9 0.0
03/08:30am 27.5 23.2 7.9 29 10.6 NNE 20 28 11 15 1012.1 1011.9 0.0

Other formats

Comma delimited format used in spreadsheet applications
http://www.bom.gov.au/fwo/IDS60801/IDS60801.95663.axf

JavaScript Object Notation format (JSON) in row-major order
http://www.bom.gov.au/fwo/IDS60801/IDS60801.95663.json

Data quality

Most of these data are generated automatically and are frequently updated. Quality checks on data are not normally performed. It is possible for incorrect values to appear. Refer to information at About Latest Weather Observations and please check the disclaimer before using these data.